Time;durP1;ratioP1;P1;durP2;ratioP2;P2;SDS_P1;SDS_P2;PMS_P1;PMS_P2;Temp;Humidity;BMP_temperature;BMP_pressure;BME280_temperature;BME280_humidity;BME280_pressure;Samples;Min_cycle;Max_cycle;Signal;HPM_P1;HPM_P2
2021/03/13 00:01:09;;;;;;;5.77;4.07;;;;;;;4.52;85.75;99037.31;5006903;28;20212;-81
2021/03/13 00:03:35;;;;;;;4.97;4.47;;;;;;;4.54;85.47;99036.41;5009075;28;20232;-83
2021/03/13 00:06:01;;;;;;;4.30;3.93;;;;;;;4.56;85.03;99033.81;5015473;28;20211;-82
2021/03/13 00:08:27;;;;;;;4.20;3.90;;;;;;;4.53;84.27;99033.84;5006449;28;20231;-83
2021/03/13 00:10:53;;;;;;;5.47;4.60;;;;;;;4.46;84.59;99033.13;5004108;28;20205;-82
2021/03/13 00:13:20;;;;;;;5.50;4.83;;;;;;;4.49;84.48;99037.38;5002416;28;20214;-82
2021/03/13 00:15:47;;;;;;;5.60;5.10;;;;;;;4.50;84.78;99045.09;5002699;28;20206;-82
2021/03/13 00:18:14;;;;;;;5.23;4.80;;;;;;;4.49;84.69;99039.97;5006888;28;20221;-82
2021/03/13 00:20:42;;;;;;;5.93;5.13;;;;;;;4.55;85.02;99032.94;5003264;28;20207;-83
2021/03/13 00:23:08;;;;;;;7.77;5.43;;;;;;;4.60;84.42;99039.75;5002162;28;21516;-83
2021/03/13 00:25:37;;;;;;;4.97;4.47;;;;;;;4.68;83.92;99030.16;5008217;28;20224;-82
2021/03/13 00:28:03;;;;;;;5.63;5.03;;;;;;;4.67;84.20;99028.44;5003158;28;20262;-82
2021/03/13 00:30:32;;;;;;;7.07;5.33;;;;;;;4.57;83.53;99020.84;5010641;28;20559;-82
2021/03/13 00:33:01;;;;;;;5.67;4.67;;;;;;;4.55;84.08;99006.25;5001406;28;20686;-82
2021/03/13 00:35:29;;;;;;;8.30;5.37;;;;;;;4.55;83.68;99012.28;5006237;28;20214;-82
2021/03/13 00:37:55;;;;;;;5.33;4.83;;;;;;;4.62;83.58;99007.00;4987577;28;20240;-83
2021/03/13 00:40:23;;;;;;;6.03;5.43;;;;;;;4.68;83.87;99009.50;5002843;28;20232;-83
2021/03/13 00:42:49;;;;;;;8.33;4.83;;;;;;;4.66;84.04;99008.63;5011498;28;20206;-82
2021/03/13 00:45:17;;;;;;;5.50;4.50;;;;;;;4.62;83.67;99002.69;5008760;28;20574;-81
2021/03/13 00:47:44;;;;;;;4.83;4.43;;;;;;;4.53;84.01;99003.69;5004821;28;20264;-84
2021/03/13 00:50:12;;;;;;;5.23;4.73;;;;;;;4.57;84.01;98987.25;5010333;28;20305;-83
2021/03/13 00:52:38;;;;;;;6.13;4.53;;;;;;;4.59;83.62;98994.97;5010910;28;20730;-82
2021/03/13 00:55:06;;;;;;;6.03;4.77;;;;;;;4.65;83.40;98994.88;5017059;28;20215;-83
2021/03/13 00:57:33;;;;;;;5.47;4.97;;;;;;;4.68;83.08;99005.16;5013749;28;20248;-82
2021/03/13 00:59:59;;;;;;;5.80;4.43;;;;;;;4.62;83.38;98999.25;5009550;28;20204;-82
2021/03/13 01:02:25;;;;;;;5.93;5.30;;;;;;;4.66;83.19;98990.53;4995796;28;20281;-83
2021/03/13 01:04:52;;;;;;;7.17;4.60;;;;;;;4.66;82.83;98995.72;5009138;28;20234;-82
2021/03/13 01:07:18;;;;;;;6.80;4.70;;;;;;;4.70;82.48;98989.63;5010435;28;20235;-82
2021/03/13 01:09:44;;;;;;;6.50;4.23;;;;;;;4.73;82.40;98981.81;5001246;28;20210;-83
2021/03/13 01:12:11;;;;;;;4.97;4.50;;;;;;;4.74;82.59;98986.97;5011069;28;20199;-82
2021/03/13 01:14:37;;;;;;;4.67;4.17;;;;;;;4.69;81.82;98983.59;4993836;28;20199;-80
2021/03/13 01:17:03;;;;;;;4.53;4.13;;;;;;;4.69;81.83;98978.44;4998406;28;20198;-82
2021/03/13 01:19:29;;;;;;;3.97;3.60;;;;;;;4.71;82.11;98984.41;5004502;28;20677;-82
2021/03/13 01:21:56;;;;;;;4.83;4.00;;;;;;;4.73;82.22;98979.22;5020583;28;20198;-83
2021/03/13 01:24:22;;;;;;;8.53;4.03;;;;;;;4.76;82.29;98968.84;5019658;28;20199;-82
2021/03/13 01:26:48;;;;;;;6.80;3.40;;;;;;;4.73;81.57;98964.56;5018829;28;20230;-82
2021/03/13 01:29:14;;;;;;;5.23;4.10;;;;;;;4.75;82.06;98955.03;5017451;28;20199;-81
2021/03/13 01:31:40;;;;;;;6.47;3.93;;;;;;;4.77;81.67;98955.03;5017537;28;20204;-82
2021/03/13 01:34:06;;;;;;;3.73;3.43;;;;;;;4.77;80.93;98960.19;5027263;28;20250;-81
2021/03/13 01:36:31;;;;;;;8.90;4.20;;;;;;;4.82;80.91;98958.38;5017466;28;20213;-81
2021/03/13 01:38:58;;;;;;;5.27;3.80;;;;;;;4.88;81.11;98954.84;5005197;28;20244;-81
2021/03/13 01:41:24;;;;;;;5.93;3.63;;;;;;;4.95;80.48;98951.22;5004347;28;20208;-83
2021/03/13 01:43:50;;;;;;;3.67;3.30;;;;;;;4.92;80.13;98948.72;5003647;28;20758;-82
2021/03/13 01:46:16;;;;;;;8.43;4.27;;;;;;;4.88;82.37;98950.50;4999600;28;20226;-83
2021/03/13 01:48:47;;;;;;;5.17;4.17;;;;;;;4.92;81.27;98946.97;5002866;28;20255;-82
2021/03/13 01:51:13;;;;;;;4.50;3.50;;;;;;;4.98;80.33;98943.41;5009497;28;20193;-82
2021/03/13 01:53:38;;;;;;;6.63;3.47;;;;;;;5.07;80.23;98943.19;5015911;28;20669;-82
2021/03/13 01:56:06;;;;;;;3.73;3.40;;;;;;;5.15;80.44;98932.69;5013014;28;20249;-81
2021/03/13 01:58:32;;;;;;;4.30;3.60;;;;;;;5.11;80.10;98933.66;5000003;28;20235;-82
2021/03/13 02:00:58;;;;;;;4.57;3.17;;;;;;;5.16;79.81;98929.25;5005251;28;20209;-82
2021/03/13 02:03:24;;;;;;;5.53;3.50;;;;;;;5.20;80.53;98917.94;5018125;28;20226;-81
2021/03/13 02:05:51;;;;;;;4.37;2.90;;;;;;;5.19;79.16;98926.56;5013253;28;20211;-83
2021/03/13 02:08:27;;;;;;;4.50;3.00;;;;;;;5.20;80.14;98915.38;5008283;28;20237;-79
2021/03/13 02:11:01;;;;;;;5.40;3.20;;;;;;;5.27;79.78;98906.59;5014150;28;20210;-82
2021/03/13 02:13:32;;;;;;;4.40;3.10;;;;;;;5.29;79.38;98916.88;5008294;28;20605;-82
2021/03/13 02:16:07;;;;;;;5.10;3.03;;;;;;;5.26;80.16;98899.69;5005537;28;20221;-81
2021/03/13 02:18:38;;;;;;;3.63;3.33;;;;;;;5.30;79.18;98896.16;5010020;28;20228;-80
2021/03/13 02:21:09;;;;;;;4.60;2.83;;;;;;;5.31;78.08;98892.69;5004386;28;20204;-82
2021/03/13 02:23:44;;;;;;;3.37;3.00;;;;;;;5.34;77.58;98896.94;5008709;28;20209;-80
2021/03/13 02:26:21;;;;;;;3.93;3.00;;;;;;;5.37;78.00;98891.69;5018175;28;20199;-81
2021/03/13 02:28:53;;;;;;;4.57;2.63;;;;;;;5.37;78.47;98882.22;5004965;28;20233;-80
2021/03/13 02:31:23;;;;;;;7.77;3.50;;;;;;;5.34;77.97;98886.59;5015542;28;20569;-81
2021/03/13 02:33:53;;;;;;;3.93;2.87;;;;;;;5.38;78.92;98873.53;5009332;28;20237;-82
2021/03/13 02:36:21;;;;;;;3.30;2.70;;;;;;;5.35;79.18;98870.16;5014417;28;20206;-83
2021/03/13 02:38:49;;;;;;;4.10;2.90;;;;;;;5.34;80.11;98865.91;5009773;28;20232;-81
2021/03/13 02:41:18;;;;;;;3.70;2.70;;;;;;;5.37;78.78;98871.84;5009258;28;20213;-82
2021/03/13 02:43:48;;;;;;;3.60;2.37;;;;;;;5.42;77.96;98866.56;5002660;28;20209;-82
2021/03/13 02:46:17;;;;;;;4.03;2.80;;;;;;;5.36;78.45;98859.78;5007755;28;20222;-82
2021/03/13 02:48:46;;;;;;;2.87;2.50;;;;;;;5.37;77.85;98853.75;5003413;28;20230;-82
2021/03/13 02:51:15;;;;;;;2.97;2.23;;;;;;;5.45;78.26;98857.88;5015963;28;20201;-82
2021/03/13 02:53:41;;;;;;;4.40;2.70;;;;;;;5.47;78.43;98850.94;5005981;28;20721;-82
2021/03/13 02:56:09;;;;;;;2.80;2.47;;;;;;;5.45;78.88;98853.56;5004098;28;20264;-82
2021/03/13 02:58:38;;;;;;;2.60;2.20;;;;;;;5.45;77.78;98845.81;5002792;28;20240;-82
2021/03/13 03:01:04;;;;;;;3.30;2.40;;;;;;;5.48;77.57;98850.91;5003199;28;20201;-83
2021/03/13 03:03:31;;;;;;;3.07;2.10;;;;;;;5.51;78.33;98844.78;5010171;28;20209;-82
2021/03/13 03:05:59;;;;;;;5.03;3.03;;;;;;;5.50;78.59;98843.94;5004127;28;20559;-82
2021/03/13 03:08:25;;;;;;;4.87;2.07;;;;;;;5.48;77.65;98837.97;5004026;28;20236;-82
2021/03/13 03:10:52;;;;;;;2.90;2.27;;;;;;;5.49;78.43;98833.63;5005704;28;20210;-81
2021/03/13 03:13:18;;;;;;;2.57;2.27;;;;;;;5.46;77.70;98826.78;5011864;28;20214;-81
2021/03/13 03:15:46;;;;;;;4.93;2.63;;;;;;;5.45;76.91;98819.94;5005322;28;20207;-82
2021/03/13 03:18:16;;;;;;;2.97;1.77;;;;;;;5.48;76.64;98829.34;5004059;28;20708;-82
2021/03/13 03:20:43;;;;;;;3.27;2.10;;;;;;;5.50;76.52;98818.06;5003620;28;20204;-82
2021/03/13 03:23:11;;;;;;;4.67;2.37;;;;;;;5.53;76.68;98802.47;5005144;28;20206;-80
2021/03/13 03:25:37;;;;;;;3.30;1.90;;;;;;;5.52;76.32;98794.75;5004031;28;20211;-81
2021/03/13 03:28:03;;;;;;;3.67;1.93;;;;;;;5.50;77.81;98799.94;5001777;28;20225;-80
2021/03/13 03:30:32;;;;;;;4.77;2.80;;;;;;;5.50;76.89;98789.59;5004513;28;20207;-80
2021/03/13 03:32:59;;;;;;;2.10;1.40;;;;;;;5.47;77.09;98787.09;5009359;28;20228;-82
2021/03/13 03:35:26;;;;;;;4.07;1.70;;;;;;;5.47;77.60;98797.47;5004894;28;20266;-83
2021/03/13 03:37:54;;;;;;;4.30;1.60;;;;;;;5.53;77.19;98792.13;5012718;28;20982;-83
2021/03/13 03:40:22;;;;;;;5.30;2.00;;;;;;;5.56;75.85;98786.00;5004244;28;20579;-81
2021/03/13 03:42:53;;;;;;;3.40;1.80;;;;;;;5.62;76.03;98769.47;5012787;28;20211;-82
2021/03/13 03:45:21;;;;;;;2.43;1.40;;;;;;;5.57;76.31;98775.63;5005837;28;20249;-82
2021/03/13 03:47:49;;;;;;;2.50;1.50;;;;;;;5.58;75.88;98773.88;5007591;28;20233;-83
2021/03/13 03:50:17;;;;;;;2.60;1.47;;;;;;;5.61;76.36;98775.53;5009798;28;20193;-83
2021/03/13 03:52:47;;;;;;;2.60;1.87;;;;;;;5.69;76.41;98771.88;5014687;28;20593;-82
2021/03/13 03:55:15;;;;;;;3.83;1.60;;;;;;;5.65;76.83;98762.50;5004632;28;20194;-83
2021/03/13 03:57:43;;;;;;;4.10;1.60;;;;;;;5.66;76.80;98766.75;5003985;28;20639;-84
2021/03/13 04:00:11;;;;;;;3.43;1.40;;;;;;;5.70;77.41;98760.63;5011192;28;20203;-82
2021/03/13 04:02:38;;;;;;;2.77;1.53;;;;;;;5.72;78.19;98773.53;5000885;28;20271;-81
2021/03/13 04:05:06;;;;;;;4.60;1.73;;;;;;;5.72;76.43;98758.00;5004272;28;20209;-83
2021/03/13 04:07:34;;;;;;;5.23;1.20;;;;;;;5.66;76.23;98758.16;5003431;28;20257;-83
2021/03/13 04:10:04;;;;;;;2.23;1.20;;;;;;;5.71;77.28;98764.06;5002873;28;20213;-83
2021/03/13 04:12:31;;;;;;;3.80;1.43;;;;;;;5.75;76.36;98751.00;5013288;28;20205;-83
2021/03/13 04:14:59;;;;;;;3.40;1.37;;;;;;;5.71;76.90;98751.97;5009918;28;20214;-83
2021/03/13 04:17:27;;;;;;;3.90;1.40;;;;;;;5.73;77.03;98742.44;5004361;28;20253;-82
2021/03/13 04:19:54;;;;;;;2.13;1.60;;;;;;;5.73;76.99;98731.22;5003809;28;20233;-82
2021/03/13 04:22:21;;;;;;;2.07;1.13;;;;;;;5.63;77.02;98725.44;5006131;28;20201;-82
2021/03/13 04:24:48;;;;;;;2.97;1.30;;;;;;;5.60;77.16;98719.50;5005266;28;20228;-81
2021/03/13 04:27:15;;;;;;;1.73;1.63;;;;;;;5.70;76.96;98705.41;5002469;28;20230;-82
2021/03/13 04:29:41;;;;;;;2.93;1.23;;;;;;;5.72;76.90;98712.25;5000679;28;20199;-82
2021/03/13 04:32:09;;;;;;;0.93;0.90;;;;;;;5.64;76.54;98705.59;5012048;28;20692;-82
2021/03/13 04:34:35;;;;;;;1.53;0.90;;;;;;;5.64;77.54;98693.47;5003366;28;20205;-83
2021/03/13 04:37:03;;;;;;;2.23;1.30;;;;;;;5.68;77.59;98689.06;5003293;28;20571;-82
2021/03/13 04:39:29;;;;;;;2.03;1.20;;;;;;;5.68;77.63;98689.06;5007336;28;20233;-83
2021/03/13 04:41:56;;;;;;;1.10;0.93;;;;;;;5.67;78.07;98687.38;5012481;28;20204;-82
2021/03/13 04:44:22;;;;;;;1.90;1.00;;;;;;;5.71;78.18;98686.41;5007020;28;20209;-82
2021/03/13 04:46:49;;;;;;;2.73;1.23;;;;;;;5.80;78.07;98673.19;5018240;28;20229;-83
2021/03/13 04:49:16;;;;;;;3.37;0.90;;;;;;;5.73;78.97;98669.09;5012714;28;20207;-83
2021/03/13 04:51:44;;;;;;;2.10;1.10;;;;;;;5.74;78.66;98663.84;5007984;28;20221;-83
2021/03/13 04:54:13;;;;;;;1.40;1.00;;;;;;;5.66;78.71;98659.78;5008318;28;20201;-82
2021/03/13 04:56:39;;;;;;;3.80;0.97;;;;;;;5.62;79.12;98655.59;5003813;28;20201;-81
2021/03/13 04:59:05;;;;;;;1.57;1.20;;;;;;;5.62;79.12;98656.44;5003143;28;20711;-82
2021/03/13 05:01:31;;;;;;;2.00;1.10;;;;;;;5.62;79.42;98629.72;5014912;28;20202;-82
2021/03/13 05:03:57;;;;;;;1.70;1.60;;;;;;;5.66;80.04;98639.09;5003914;28;20250;-82
2021/03/13 05:06:23;;;;;;;1.93;1.20;;;;;;;5.55;80.90;98639.41;5004403;28;20203;-82
2021/03/13 05:08:49;;;;;;;2.70;1.50;;;;;;;5.57;81.30;98635.03;5007356;28;20288;-83
2021/03/13 05:11:16;;;;;;;1.33;1.23;;;;;;;5.49;80.92;98631.78;5010875;28;20206;-81
2021/03/13 05:13:42;;;;;;;1.67;1.20;;;;;;;5.52;81.04;98617.03;5005519;28;20217;-82
2021/03/13 05:16:08;;;;;;;2.27;1.50;;;;;;;5.42;81.70;98620.75;5011781;28;20223;-83
2021/03/13 05:18:34;;;;;;;1.57;1.20;;;;;;;5.34;82.09;98623.56;5013878;28;20229;-82
2021/03/13 05:21:00;;;;;;;1.87;1.50;;;;;;;5.38;82.74;98612.22;5002385;28;20225;-82
2021/03/13 05:23:26;;;;;;;1.90;1.77;;;;;;;5.27;82.69;98605.66;5004419;28;20903;-83
2021/03/13 05:25:52;;;;;;;1.73;1.53;;;;;;;5.20;82.95;98597.22;5007083;28;20589;-82
2021/03/13 05:28:18;;;;;;;1.57;1.47;;;;;;;5.12;83.35;98600.00;5010104;28;20233;-81
2021/03/13 05:30:44;;;;;;;1.60;1.50;;;;;;;5.16;83.62;98600.78;5007441;28;20260;-80
2021/03/13 05:35:54;;;;;;;2.27;1.63;;;;;;;5.31;84.32;98582.25;5028027;28;20236;-78
2021/03/13 05:38:20;;;;;;;1.60;1.50;;;;;;;5.37;83.44;98570.88;5043975;28;20234;-77
2021/03/13 05:40:47;;;;;;;1.70;1.60;;;;;;;5.38;83.47;98575.16;5030175;28;20680;-77
2021/03/13 05:43:13;;;;;;;2.13;1.80;;;;;;;5.37;83.92;98563.97;5037018;28;20206;-77
2021/03/13 05:45:41;;;;;;;2.13;2.03;;;;;;;5.31;83.87;98548.63;5036486;28;20651;-77
2021/03/13 05:48:09;;;;;;;2.20;2.10;;;;;;;4.98;83.88;98551.25;5040433;28;20300;-77
2021/03/13 05:50:36;;;;;;;2.33;1.87;;;;;;;4.99;84.54;98539.16;5028387;28;20290;-77
2021/03/13 05:53:04;;;;;;;1.97;1.87;;;;;;;5.01;85.27;98524.44;5040903;28;20210;-77
2021/03/13 05:55:31;;;;;;;2.30;2.20;;;;;;;5.05;85.01;98513.13;5046016;28;20309;-77
2021/03/13 05:57:58;;;;;;;2.53;2.33;;;;;;;5.04;85.25;98513.19;5044574;28;20254;-77
2021/03/13 06:00:24;;;;;;;2.60;2.40;;;;;;;5.10;85.08;98505.25;5041048;28;20215;-77
2021/03/13 06:02:51;;;;;;;2.60;2.40;;;;;;;5.14;85.16;98499.09;5047276;28;20291;-77
2021/03/13 06:05:17;;;;;;;3.13;2.83;;;;;;;5.15;84.33;98483.56;5045645;28;20232;-77
2021/03/13 06:07:44;;;;;;;2.83;2.63;;;;;;;5.16;85.05;98485.22;5046971;28;20297;-77
2021/03/13 06:10:14;;;;;;;2.60;2.40;;;;;;;5.10;84.95;98477.66;5040370;28;20213;-77
2021/03/13 06:12:40;;;;;;;2.27;2.07;;;;;;;5.14;84.76;98475.84;5044729;28;20558;-77
2021/03/13 06:15:08;;;;;;;3.30;3.10;;;;;;;5.16;85.29;98476.63;5042678;28;20312;-77
2021/03/13 06:17:53;;;;;;;2.97;2.77;;;;;;;5.11;85.32;98460.38;5036688;28;20205;-77
2021/03/13 06:20:28;;;;;;;2.90;2.70;;;;;;;5.10;85.71;98463.88;5031151;28;20210;-77
2021/03/13 06:22:55;;;;;;;3.17;2.97;;;;;;;5.15;85.55;98439.59;5045453;28;20213;-77
2021/03/13 06:25:24;;;;;;;2.60;2.40;;;;;;;5.12;85.73;98457.78;5044496;28;20218;-77
2021/03/13 06:28:07;;;;;;;3.00;2.30;;;;;;;5.11;85.41;98437.13;5045266;28;20252;-77
2021/03/13 06:30:36;;;;;;;2.70;2.50;;;;;;;5.19;85.38;98435.16;5040374;28;20231;-77
2021/03/13 06:33:21;;;;;;;2.47;2.23;;;;;;;5.26;86.11;98433.25;5037041;28;20338;-77
2021/03/13 06:35:48;;;;;;;2.10;1.90;;;;;;;5.27;85.26;98432.34;5037214;28;20570;-77
2021/03/13 06:38:18;;;;;;;1.93;1.83;;;;;;;5.31;85.76;98421.00;5035915;28;20274;-77
2021/03/13 06:40:44;;;;;;;2.00;1.90;;;;;;;5.34;84.92;98419.19;5036047;28;20215;-77
2021/03/13 06:43:22;;;;;;;1.97;1.87;;;;;;;5.35;85.10;98413.13;5035489;28;20285;-77
2021/03/13 06:46:06;;;;;;;1.80;1.70;;;;;;;5.37;85.52;98403.56;5036076;28;20224;-77
2021/03/13 06:48:41;;;;;;;1.40;1.30;;;;;;;5.36;85.22;98401.88;5035496;28;20680;-77
2021/03/13 06:51:25;;;;;;;1.70;1.60;;;;;;;5.34;84.70;98395.06;5037176;28;20571;-77
2021/03/13 06:54:11;;;;;;;1.50;1.40;;;;;;;5.41;85.00;98395.69;5032513;28;21252;-77
2021/03/13 06:56:40;;;;;;;1.33;1.23;;;;;;;5.38;84.54;98379.38;5032952;28;20191;-77
2021/03/13 06:59:24;;;;;;;1.47;1.37;;;;;;;5.43;85.34;98357.69;5036054;28;20201;-77
2021/03/13 07:02:05;;;;;;;1.70;1.27;;;;;;;5.47;85.23;98356.69;5034869;28;20793;-77
2021/03/13 07:04:33;;;;;;;1.17;1.10;;;;;;;5.45;84.67;98346.41;5036557;28;20247;-77
2021/03/13 07:07:00;;;;;;;1.43;1.00;;;;;;;5.52;84.92;98345.31;5033737;28;20232;-77
2021/03/13 07:09:46;;;;;;;1.13;1.00;;;;;;;5.53;84.99;98343.56;5035511;28;20205;-77
2021/03/13 07:12:25;;;;;;;2.73;1.10;;;;;;;5.49;85.35;98336.78;5040309;28;20204;-77
2021/03/13 07:14:52;;;;;;;1.03;1.00;;;;;;;5.45;84.88;98327.44;5035919;28;20227;-77
2021/03/13 07:17:21;;;;;;;1.43;1.20;;;;;;;5.47;85.20;98307.53;5038927;28;20750;-77
2021/03/13 07:19:47;;;;;;;1.17;1.10;;;;;;;5.40;85.46;98319.00;5037054;28;20205;-77
2021/03/13 07:22:14;;;;;;;1.07;1.07;;;;;;;5.42;85.02;98305.09;5036708;28;20246;-78
2021/03/13 07:24:43;;;;;;;0.97;0.90;;;;;;;5.45;85.07;98305.03;5037870;28;20230;-77
2021/03/13 07:27:11;;;;;;;1.00;0.90;;;;;;;5.52;85.38;98309.09;5036722;28;20233;-78
2021/03/13 07:29:39;;;;;;;1.30;1.20;;;;;;;5.47;85.47;98277.34;5033242;28;20211;-78
2021/03/13 07:32:09;;;;;;;0.97;0.97;;;;;;;5.53;85.19;98287.50;5034939;28;20208;-77
2021/03/13 07:34:37;;;;;;;0.80;0.80;;;;;;;5.45;84.66;98280.88;5032268;28;20666;-77
2021/03/13 07:37:04;;;;;;;0.90;0.90;;;;;;;5.53;84.32;98268.53;5034637;28;20198;-78
2021/03/13 07:39:35;;;;;;;1.10;0.90;;;;;;;5.61;84.67;98266.53;5035135;28;20291;-77
2021/03/13 07:42:05;;;;;;;0.90;0.90;;;;;;;5.66;84.54;98236.16;5030001;28;20615;-78
2021/03/13 07:44:31;;;;;;;0.90;0.90;;;;;;;5.74;85.24;98222.94;5033449;28;20235;-77
2021/03/13 07:46:58;;;;;;;0.60;0.60;;;;;;;5.77;82.94;98243.56;5030850;28;20233;-77
2021/03/13 07:49:24;;;;;;;0.70;0.70;;;;;;;5.83;83.24;98266.66;5034225;28;20415;-77
2021/03/13 07:51:52;;;;;;;0.77;0.77;;;;;;;5.89;83.68;98248.31;5032601;28;20896;-78
2021/03/13 07:54:20;;;;;;;0.47;0.47;;;;;;;5.93;82.77;98241.28;5033713;28;20682;-77
2021/03/13 07:56:46;;;;;;;0.53;0.50;;;;;;;5.95;82.71;98226.56;5033897;28;20277;-77
2021/03/13 07:59:33;;;;;;;0.53;0.40;;;;;;;5.94;83.63;98232.59;5032600;28;20208;-77
2021/03/13 08:01:59;;;;;;;0.50;0.50;;;;;;;5.94;83.76;98223.06;5032471;28;20200;-77
2021/03/13 08:04:52;;;;;;;0.77;0.40;;;;;;;5.97;83.75;98212.66;5032179;28;20242;-77
2021/03/13 08:07:19;;;;;;;0.40;0.40;;;;;;;6.00;83.88;98195.31;5031760;28;20225;-77
2021/03/13 08:09:45;;;;;;;0.50;0.50;;;;;;;6.09;84.10;98184.63;5032441;28;20207;-77
2021/03/13 08:12:12;;;;;;;0.53;0.43;;;;;;;6.10;83.12;98194.91;5028956;28;20217;-77
2021/03/13 08:14:38;;;;;;;0.50;0.50;;;;;;;6.18;83.77;98173.91;5030694;28;20229;-77
2021/03/13 08:17:09;;;;;;;0.40;0.40;;;;;;;6.24;84.47;98165.06;5033535;28;20201;-77
2021/03/13 08:19:38;;;;;;;1.33;1.23;;;;;;;6.23;83.96;98173.75;5031605;28;20605;-78
2021/03/13 08:22:18;;;;;;;0.40;0.40;;;;;;;6.29;83.63;98164.00;5029597;28;20215;-77
2021/03/13 08:24:47;;;;;;;0.40;0.40;;;;;;;6.36;85.01;98149.91;5032982;28;21281;-78
2021/03/13 08:27:15;;;;;;;0.30;0.30;;;;;;;6.40;84.00;98157.53;5031086;28;20241;-78
2021/03/13 08:29:57;;;;;;;0.40;0.40;;;;;;;6.43;83.17;98140.13;5033231;28;20204;-77
2021/03/13 08:33:06;;;;;;;0.23;0.23;;;;;;;6.54;83.18;98137.09;5028931;28;20241;-78
2021/03/13 08:35:44;;;;;;;0.40;0.40;;;;;;;6.59;81.66;98142.13;5033919;28;20279;-78
2021/03/13 08:38:10;;;;;;;0.40;0.40;;;;;;;6.61;82.24;98132.53;5037096;28;20538;-79
2021/03/13 08:40:44;;;;;;;1.33;0.30;;;;;;;6.70;83.19;98127.84;5035095;28;20203;-79
2021/03/13 08:43:37;;;;;;;0.97;0.30;;;;;;;6.77;82.14;98120.63;5041530;28;20202;-78
2021/03/13 08:46:04;;;;;;;0.30;0.30;;;;;;;6.78;80.55;98111.09;5030809;28;20228;-78
2021/03/13 08:48:55;;;;;;;0.40;0.40;;;;;;;6.89;81.23;98114.94;5034512;28;20300;-79
2021/03/13 08:51:21;;;;;;;0.30;0.30;;;;;;;6.92;81.98;98098.44;5032221;28;20202;-78
2021/03/13 08:53:47;;;;;;;0.40;0.40;;;;;;;6.99;82.27;98124.94;5038735;28;20633;-79
2021/03/13 08:56:39;;;;;;;0.40;0.37;;;;;;;6.91;81.05;98113.13;5039791;28;20255;-78
2021/03/13 08:59:10;;;;;;;0.20;0.20;;;;;;;6.97;81.24;98099.06;5040584;28;20213;-78
2021/03/13 09:01:36;;;;;;;0.73;0.30;;;;;;;7.01;81.33;98105.81;5033002;28;20235;-78
2021/03/13 09:04:02;;;;;;;0.30;0.20;;;;;;;6.99;80.93;98099.84;5039413;28;20267;-78
2021/03/13 09:06:28;;;;;;;0.20;0.20;;;;;;;7.03;79.95;98093.63;5031489;28;20217;-78
2021/03/13 09:09:08;;;;;;;0.40;0.40;;;;;;;7.06;81.18;98077.09;5036675;28;20261;-78
2021/03/13 09:11:35;;;;;;;0.87;0.30;;;;;;;7.19;80.61;98064.44;5039776;28;20209;-78
2021/03/13 09:14:03;;;;;;;0.20;0.20;;;;;;;7.25;81.02;98044.25;5037593;28;20216;-78
2021/03/13 09:16:35;;;;;;;0.30;0.30;;;;;;;7.36;80.42;98056.75;5034730;28;20220;-78
2021/03/13 09:19:01;;;;;;;0.20;0.20;;;;;;;7.45;80.59;98077.13;5041071;28;20577;-77
2021/03/13 09:21:38;;;;;;;0.20;0.20;;;;;;;7.44;79.41;98080.59;5038118;28;20232;-78
2021/03/13 09:24:05;;;;;;;1.03;0.30;;;;;;;7.49;78.42;98055.31;5037312;28;20689;-78
2021/03/13 09:26:31;;;;;;;0.20;0.20;;;;;;;7.56;77.40;98054.09;5046216;28;20288;-78
2021/03/13 09:28:57;;;;;;;0.17;0.17;;;;;;;7.61;77.11;98051.31;5040811;28;20222;-79
2021/03/13 09:31:24;;;;;;;0.30;0.30;;;;;;;7.62;78.49;98055.56;5041941;28;20201;-79
2021/03/13 09:33:50;;;;;;;0.30;0.30;;;;;;;7.56;77.84;98050.66;5036624;28;20307;-79
2021/03/13 09:36:18;;;;;;;0.83;0.33;;;;;;;7.50;78.20;98067.34;5033076;28;20623;-78
2021/03/13 09:38:54;;;;;;;0.83;0.30;;;;;;;7.51;80.01;98094.16;5035386;28;20207;-78
2021/03/13 09:41:20;;;;;;;0.70;0.40;;;;;;;7.37;80.40;98084.38;5044826;28;20248;-78
2021/03/13 09:43:46;;;;;;;2.10;0.50;;;;;;;7.34;80.98;98106.13;5038386;28;20333;-78
2021/03/13 09:46:16;;;;;;;0.40;0.30;;;;;;;7.17;82.44;98147.50;5038516;28;20313;-78
2021/03/13 09:48:43;;;;;;;1.33;0.50;;;;;;;6.60;84.03;98169.72;5034689;28;20225;-77
2021/03/13 09:51:10;;;;;;;3.77;1.03;;;;;;;5.91;84.43;98178.34;5037993;28;20274;-77
2021/03/13 09:53:37;;;;;;;0.60;0.40;;;;;;;5.69;85.04;98179.13;5037096;28;20205;-77
2021/03/13 09:56:03;;;;;;;1.30;0.57;;;;;;;5.59;86.39;98146.72;5036543;28;20664;-78
2021/03/13 09:58:29;;;;;;;2.00;1.30;;;;;;;5.62;85.39;98144.00;5037658;28;20208;-78
2021/03/13 10:00:55;;;;;;;1.60;1.40;;;;;;;5.60;85.87;98139.78;5037371;28;20209;-79
2021/03/13 10:03:22;;;;;;;1.53;1.43;;;;;;;5.66;85.42;98149.91;5036409;28;20212;-78
2021/03/13 10:05:51;;;;;;;0.60;0.60;;;;;;;5.74;86.95;98146.13;5035268;28;20403;-78
2021/03/13 10:08:18;;;;;;;0.53;0.40;;;;;;;5.66;85.07;98144.75;5031407;28;20218;-78
2021/03/13 10:10:45;;;;;;;0.60;0.60;;;;;;;5.70;85.23;98135.97;5032500;28;20655;-79
2021/03/13 10:13:14;;;;;;;0.77;0.60;;;;;;;5.65;83.45;98146.50;5036247;28;20255;-79
2021/03/13 10:15:41;;;;;;;1.93;0.67;;;;;;;5.69;84.13;98142.88;5035419;28;20293;-79
2021/03/13 10:18:09;;;;;;;1.27;0.60;;;;;;;5.86;83.27;98144.84;5031112;28;20320;-79
2021/03/13 10:20:37;;;;;;;1.43;0.90;;;;;;;5.98;81.98;98138.41;5034681;28;20670;-79
2021/03/13 10:23:07;;;;;;;0.80;0.60;;;;;;;6.09;81.42;98131.06;5031876;28;20204;-78
2021/03/13 10:25:34;;;;;;;2.00;0.97;;;;;;;6.12;80.39;98130.94;5038780;28;20701;-79
2021/03/13 10:28:05;;;;;;;1.13;0.60;;;;;;;6.13;79.97;98157.72;5019287;28;20329;-79
2021/03/13 10:30:31;;;;;;;0.73;0.30;;;;;;;6.15;79.54;98141.19;5032636;28;20675;-79
2021/03/13 10:32:57;;;;;;;1.90;0.60;;;;;;;6.16;78.23;98139.44;5035980;28;20236;-79
2021/03/13 10:35:27;;;;;;;0.73;0.73;;;;;;;6.24;77.83;98134.81;5036911;28;20320;-78
2021/03/13 10:37:55;;;;;;;1.17;0.83;;;;;;;6.32;78.96;98143.16;5036348;28;20295;-79
2021/03/13 10:40:40;;;;;;;1.53;0.60;;;;;;;6.35;78.17;98135.25;5034653;28;20206;-79
2021/03/13 10:43:30;;;;;;;0.83;0.40;;;;;;;6.37;78.41;98127.44;5016341;28;20205;-79
2021/03/13 10:46:11;;;;;;;1.47;0.60;;;;;;;6.41;76.07;98126.41;5034944;28;20261;-79
2021/03/13 10:48:57;;;;;;;4.30;0.60;;;;;;;6.50;77.20;98125.19;5034992;28;20263;-78
2021/03/13 10:51:24;;;;;;;3.20;0.80;;;;;;;6.55;76.21;98118.06;5030385;28;20742;-78
2021/03/13 10:53:51;;;;;;;1.87;1.10;;;;;;;6.64;75.96;98107.34;5041187;28;20240;-79
2021/03/13 10:56:18;;;;;;;1.13;0.70;;;;;;;6.66;75.96;98104.66;5035693;28;20221;-79
2021/03/13 10:58:49;;;;;;;1.60;1.10;;;;;;;6.67;75.40;98094.25;5043869;28;20664;-78
2021/03/13 11:01:16;;;;;;;2.87;1.00;;;;;;;6.69;75.61;98109.75;5040464;28;20731;-79
2021/03/13 11:03:42;;;;;;;3.70;0.83;;;;;;;6.71;74.44;98105.34;5035435;28;20219;-78
2021/03/13 11:06:09;;;;;;;3.53;0.77;;;;;;;6.77;73.69;98094.72;5035168;28;20227;-78
2021/03/13 11:08:35;;;;;;;2.37;1.20;;;;;;;6.85;73.86;98097.81;5034566;28;20706;-80
2021/03/13 11:11:01;;;;;;;2.37;1.40;;;;;;;6.94;73.75;98087.06;5030706;28;20612;-79
2021/03/13 11:13:28;;;;;;;5.53;4.10;;;;;;;7.00;72.90;98096.34;5014693;28;20570;-78
2021/03/13 11:15:54;;;;;;;5.13;3.60;;;;;;;7.10;73.88;98113.22;5033329;28;20814;-78
2021/03/13 11:18:20;;;;;;;5.30;1.67;;;;;;;7.03;72.11;98100.56;5034542;28;20231;-80
2021/03/13 11:20:47;;;;;;;4.17;1.37;;;;;;;7.09;73.12;98095.94;5033808;28;20209;-79
2021/03/13 11:23:14;;;;;;;3.70;2.03;;;;;;;7.15;73.39;98100.91;5052601;28;20208;-78
2021/03/13 11:25:40;;;;;;;3.07;1.70;;;;;;;7.00;71.64;98087.72;5034502;28;20317;-79
2021/03/13 11:28:07;;;;;;;2.53;1.23;;;;;;;7.05;73.10;98089.22;5014714;28;20678;-79
2021/03/13 11:30:34;;;;;;;3.67;1.37;;;;;;;7.08;71.42;98088.25;5034978;28;20211;-78
2021/03/13 11:33:00;;;;;;;5.00;1.10;;;;;;;7.07;71.07;98076.19;5033631;28;20317;-79
2021/03/13 11:35:26;;;;;;;1.93;0.80;;;;;;;7.05;71.15;98059.84;5040788;28;20288;-79
2021/03/13 11:37:53;;;;;;;2.33;1.00;;;;;;;7.06;70.25;98072.75;5054979;22;20232;-76
2021/03/13 11:40:21;;;;;;;2.67;0.90;;;;;;;7.14;70.24;98068.06;5051179;28;20209;-76
2021/03/13 11:42:48;;;;;;;7.10;2.90;;;;;;;7.18;70.98;98063.59;5042850;28;20220;-77
2021/03/13 11:45:15;;;;;;;4.20;2.90;;;;;;;7.29;70.03;98076.09;5051779;28;20217;-76
2021/03/13 11:47:42;;;;;;;5.30;2.50;;;;;;;7.24;69.65;98057.31;5052851;28;20242;-77
2021/03/13 11:50:10;;;;;;;11.47;6.33;;;;;;;7.22;68.27;98046.97;5053685;28;20214;-76
2021/03/13 11:52:37;;;;;;;7.97;5.53;;;;;;;7.25;68.11;98043.41;5051730;28;20212;-76